createdAt,value
2023-02-22T00:02:32.619Z,13.00
2023-02-22T00:05:00.731Z,12.99
2023-02-22T00:07:30.212Z,12.91
2023-02-22T00:10:01.032Z,12.77
2023-02-22T00:12:44.184Z,12.73
2023-02-22T00:15:15.445Z,12.77
2023-02-22T00:17:44.789Z,12.76
2023-02-22T00:20:18.761Z,13.02
2023-02-22T00:22:49.267Z,12.93
2023-02-22T00:25:20.728Z,12.95
2023-02-22T00:28:05.057Z,12.77
2023-02-22T00:30:36.447Z,12.78
2023-02-22T00:33:10.007Z,12.78
2023-02-22T00:35:47.910Z,12.82
2023-02-22T00:38:20.076Z,12.76
2023-02-22T00:40:50.934Z,12.65
2023-02-22T00:43:25.155Z,12.77
2023-02-22T00:45:54.227Z,12.94
2023-02-22T00:48:26.774Z,12.89
2023-02-22T00:50:58.556Z,12.76
2023-02-22T00:53:31.982Z,12.69
2023-02-22T00:56:02.145Z,12.86
2023-02-22T00:58:35.022Z,12.93
2023-02-22T01:01:04.316Z,12.81
2023-02-22T01:03:35.309Z,12.65
2023-02-22T01:06:09.683Z,12.63
2023-02-22T01:08:41.266Z,12.74
2023-02-22T01:11:10.499Z,12.82
2023-02-22T01:13:47.954Z,12.60
2023-02-22T01:16:22.476Z,12.65
2023-02-22T01:18:54.196Z,12.78
2023-02-22T01:21:26.524Z,12.70
2023-02-22T01:23:56.670Z,12.65
2023-02-22T01:26:38.236Z,12.87
2023-02-22T01:29:15.272Z,13.00
2023-02-22T01:31:52.224Z,12.87
2023-02-22T01:34:26.461Z,12.68
2023-02-22T01:37:03.264Z,12.71
2023-02-22T01:39:33.994Z,12.64
2023-02-22T01:42:03.644Z,12.67
2023-02-22T01:44:37.984Z,12.65
2023-02-22T01:47:11.995Z,12.89
2023-02-22T01:49:43.637Z,12.66
2023-02-22T01:52:19.860Z,12.54
2023-02-22T01:54:56.424Z,12.90
2023-02-22T01:57:31.681Z,12.87
2023-02-22T02:00:13.755Z,12.60
2023-02-22T02:02:45.903Z,12.49
2023-02-22T02:05:15.613Z,12.64
2023-02-22T02:07:46.673Z,12.72
2023-02-22T02:10:26.784Z,12.56
2023-02-22T02:13:06.358Z,12.93
2023-02-22T02:15:36.493Z,12.71
2023-02-22T02:18:09.005Z,12.60
2023-02-22T02:20:47.941Z,12.55
2023-02-22T02:23:43.553Z,12.52
2023-02-22T02:26:32.774Z,12.67
2023-02-22T02:29:32.669Z,12.60
2023-02-22T02:32:44.271Z,12.77
2023-02-22T02:35:22.883Z,12.75
2023-02-22T02:37:58.023Z,12.60
2023-02-22T02:40:33.500Z,12.57
2023-02-22T02:43:06.519Z,12.64
2023-02-22T02:45:46.565Z,12.71
2023-02-22T02:48:20.909Z,12.58
2023-02-22T02:50:59.578Z,12.61
2023-02-22T02:53:35.864Z,12.58
2023-02-22T02:56:10.238Z,12.64
2023-02-22T02:58:55.725Z,12.68
2023-02-22T03:01:51.556Z,12.70
2023-02-22T03:04:25.572Z,12.52
2023-02-22T03:07:23.688Z,12.80
2023-02-22T03:10:11.605Z,12.49
2023-02-22T03:12:48.033Z,12.48
2023-02-22T03:15:27.646Z,12.62
2023-02-22T03:18:10.450Z,12.88
2023-02-22T03:20:49.848Z,12.53
2023-02-22T03:23:38.791Z,12.69
2023-02-22T03:26:14.391Z,12.70
2023-02-22T03:28:46.821Z,12.37
2023-02-22T03:31:23.567Z,12.33
2023-02-22T03:33:56.064Z,12.31
2023-02-22T03:36:30.765Z,12.32
2023-02-22T03:39:04.347Z,12.30
2023-02-22T03:41:38.923Z,12.35
2023-02-22T03:44:10.809Z,12.38
2023-02-22T03:46:42.117Z,12.40
2023-02-22T03:49:21.312Z,12.24
2023-02-22T03:51:50.301Z,12.36
2023-02-22T03:54:37.130Z,12.46
2023-02-22T03:57:14.389Z,12.35
2023-02-22T03:59:49.293Z,12.41
2023-02-22T04:02:22.046Z,12.38
2023-02-22T04:05:00.623Z,12.21
2023-02-22T04:07:31.100Z,12.32
2023-02-22T04:10:05.357Z,12.33
2023-02-22T04:12:36.559Z,12.38
2023-02-22T04:15:08.817Z,12.35
2023-02-22T04:17:42.398Z,12.17
2023-02-22T04:20:19.887Z,12.12
2023-02-22T04:22:56.262Z,12.12
2023-02-22T04:25:37.453Z,12.28
2023-02-22T04:28:23.887Z,12.20
2023-02-22T04:30:59.848Z,12.09
2023-02-22T04:33:38.501Z,12.15
2023-02-22T04:36:19.881Z,11.99
2023-02-22T04:38:52.257Z,11.95
2023-02-22T04:41:36.073Z,12.06
2023-02-22T04:44:05.432Z,12.26
2023-02-22T04:46:35.429Z,12.07
2023-02-22T04:49:05.102Z,12.08
2023-02-22T04:51:41.356Z,12.09
2023-02-22T04:54:14.210Z,12.07
2023-02-22T04:56:59.507Z,12.06
2023-02-22T04:59:36.733Z,12.01
2023-02-22T05:02:06.500Z,12.00
2023-02-22T05:04:39.975Z,12.11
2023-02-22T05:07:10.760Z,11.98
2023-02-22T05:09:44.080Z,11.99
2023-02-22T05:12:17.819Z,12.09
2023-02-22T05:14:46.164Z,12.27
2023-02-22T05:17:15.155Z,12.09
2023-02-22T05:19:45.089Z,12.06
2023-02-22T05:22:13.223Z,12.14
2023-02-22T05:24:45.014Z,12.03
2023-02-22T05:27:23.088Z,12.22
2023-02-22T05:30:03.350Z,12.11
2023-02-22T05:35:25.851Z,11.99
2023-02-22T05:37:56.898Z,12.17
2023-02-22T05:40:30.952Z,12.27
2023-02-22T05:43:12.092Z,12.13
2023-02-22T05:45:51.144Z,11.99
2023-02-22T05:48:31.827Z,12.04
2023-02-22T05:51:02.741Z,12.03
2023-02-22T05:53:33.820Z,12.07
2023-02-22T05:56:03.854Z,11.99
2023-02-22T05:58:33.556Z,11.97
2023-02-22T06:01:11.291Z,11.96
2023-02-22T06:03:40.206Z,12.04
2023-02-22T06:06:19.654Z,12.04
2023-02-22T06:08:58.860Z,12.23
2023-02-22T06:11:30.521Z,12.19
2023-02-22T06:13:59.769Z,12.23
2023-02-22T06:16:36.440Z,12.09
2023-02-22T06:19:19.108Z,11.93
2023-02-22T06:21:52.778Z,12.08
2023-02-22T06:24:30.606Z,12.11
2023-02-22T06:27:02.957Z,12.01
2023-02-22T06:29:34.601Z,12.09
2023-02-22T06:32:11.615Z,11.99
2023-02-22T06:34:41.159Z,12.20
2023-02-22T06:37:13.305Z,12.24
2023-02-22T06:39:50.021Z,12.15
2023-02-22T06:42:22.242Z,12.31
2023-02-22T06:44:51.920Z,12.22
2023-02-22T06:47:38.574Z,12.28
2023-02-22T06:50:09.322Z,12.39
2023-02-22T06:52:48.027Z,12.17
2023-02-22T06:55:20.045Z,12.21
2023-02-22T06:57:55.795Z,12.30
2023-02-22T07:00:28.540Z,12.57
2023-02-22T07:03:13.284Z,12.33
2023-02-22T07:05:55.526Z,12.33
2023-02-22T07:08:29.299Z,12.33
2023-02-22T07:11:00.965Z,12.46
2023-02-22T07:13:29.743Z,12.39
2023-02-22T07:15:57.874Z,12.47
2023-02-22T07:18:30.947Z,12.53
2023-02-22T07:21:05.260Z,12.46
2023-02-22T07:23:39.683Z,12.40
2023-02-22T07:26:08.591Z,12.64
2023-02-22T07:28:37.293Z,12.46
2023-02-22T07:31:11.529Z,12.62
2023-02-22T07:33:51.371Z,12.48
2023-02-22T07:36:26.951Z,12.54
2023-02-22T07:38:55.318Z,12.65
2023-02-22T07:41:29.266Z,12.64
2023-02-22T07:44:00.786Z,12.56
2023-02-22T07:46:29.880Z,12.57
2023-02-22T07:49:07.299Z,12.59
2023-02-22T07:51:36.486Z,12.69
2023-02-22T07:54:10.457Z,12.73
2023-02-22T07:56:46.255Z,12.85
2023-02-22T07:59:15.467Z,12.78
2023-02-22T08:01:47.204Z,12.80
2023-02-22T08:04:17.770Z,12.66
2023-02-22T08:06:50.255Z,12.90
2023-02-22T08:09:18.407Z,12.84
2023-02-22T08:11:57.602Z,12.88
2023-02-22T08:14:32.855Z,12.97
2023-02-22T08:17:04.440Z,12.85
2023-02-22T08:19:39.822Z,12.92
2023-02-22T08:22:16.601Z,12.87
2023-02-22T08:24:45.356Z,13.09
2023-02-22T08:27:17.623Z,13.10
2023-02-22T08:29:49.012Z,13.20
2023-02-22T08:32:25.708Z,13.12
2023-02-22T08:34:57.687Z,13.09
2023-02-22T08:37:26.374Z,13.21
2023-02-22T08:39:57.282Z,13.24
2023-02-22T08:42:39.713Z,13.31
2023-02-22T08:45:11.312Z,13.36
2023-02-22T08:47:45.913Z,13.35
2023-02-22T08:50:33.430Z,13.44
2023-02-22T08:53:05.439Z,13.40
2023-02-22T08:55:43.435Z,13.28
2023-02-22T08:58:19.975Z,13.39
2023-02-22T09:00:51.159Z,13.43
2023-02-22T09:03:20.796Z,13.59
2023-02-22T09:05:53.402Z,13.51
2023-02-22T09:08:28.897Z,13.52
2023-02-22T09:10:57.409Z,13.74
2023-02-22T09:13:34.423Z,13.65
2023-02-22T09:16:06.120Z,13.72
2023-02-22T09:18:44.542Z,13.70
2023-02-22T09:21:20.445Z,13.83
2023-02-22T09:23:56.869Z,13.83
2023-02-22T09:26:27.707Z,13.90
2023-02-22T09:29:00.544Z,14.08
2023-02-22T09:31:32.293Z,13.96
2023-02-22T09:34:04.358Z,14.01
2023-02-22T09:36:36.403Z,14.13
2023-02-22T09:39:07.654Z,14.02
2023-02-22T09:41:43.489Z,13.96
2023-02-22T09:44:26.784Z,14.10
2023-02-22T09:46:59.127Z,14.20
2023-02-22T09:49:34.159Z,14.22
2023-02-22T09:52:10.011Z,14.35
2023-02-22T09:54:43.487Z,14.31
2023-02-22T09:57:20.717Z,14.32
2023-02-22T10:00:12.983Z,14.48
2023-02-22T10:02:48.054Z,14.64
2023-02-22T10:05:28.541Z,14.69
2023-02-22T10:08:06.189Z,14.75
2023-02-22T10:10:39.402Z,14.72
2023-02-22T10:13:21.743Z,14.73
2023-02-22T10:15:58.298Z,14.70
2023-02-22T10:19:12.184Z,14.71
2023-02-22T10:21:51.215Z,14.61
2023-02-22T10:24:38.577Z,14.77
2023-02-22T10:27:13.281Z,14.83
2023-02-22T10:29:50.360Z,14.56
2023-02-22T10:32:23.230Z,14.69
2023-02-22T10:34:54.358Z,14.72
2023-02-22T10:37:29.896Z,14.71
2023-02-22T10:40:23.087Z,14.78
2023-02-22T10:42:57.806Z,15.01
2023-02-22T10:45:38.092Z,15.02
2023-02-22T10:48:24.022Z,15.17
2023-02-22T10:51:09.039Z,15.02
2023-02-22T10:53:48.542Z,15.06
2023-02-22T10:56:30.854Z,15.14
2023-02-22T10:59:02.492Z,15.00
2023-02-22T11:01:40.852Z,15.03
2023-02-22T11:04:16.217Z,15.13
2023-02-22T11:06:51.388Z,15.19
2023-02-22T11:09:23.082Z,15.01
2023-02-22T11:12:22.025Z,15.01
2023-02-22T11:14:52.758Z,15.15
2023-02-22T11:17:34.231Z,15.09
2023-02-22T11:20:03.768Z,14.99
2023-02-22T11:22:41.174Z,15.00
2023-02-22T11:25:09.985Z,14.96
2023-02-22T11:27:43.793Z,14.98
2023-02-22T11:30:29.320Z,14.90
2023-02-22T11:33:01.660Z,14.98
2023-02-22T11:35:47.053Z,14.75
2023-02-22T11:38:30.256Z,14.62
2023-02-22T11:41:40.495Z,14.79
2023-02-22T11:44:30.884Z,15.19
2023-02-22T11:47:07.105Z,15.20
2023-02-22T11:49:48.160Z,15.21
2023-02-22T11:52:31.022Z,15.21
2023-02-22T11:55:40.097Z,15.16
2023-02-22T11:58:50.749Z,15.11
2023-02-22T12:01:33.430Z,15.13
2023-02-22T12:04:39.657Z,15.32
2023-02-22T12:07:48.670Z,15.49
2023-02-22T12:10:47.302Z,15.79
2023-02-22T12:13:33.344Z,15.69
2023-02-22T12:16:08.157Z,15.49
2023-02-22T12:18:45.613Z,15.44
2023-02-22T12:21:17.905Z,15.43
2023-02-22T12:23:52.251Z,15.25
2023-02-22T12:26:29.105Z,15.08
2023-02-22T12:29:00.342Z,15.13
2023-02-22T12:31:42.510Z,15.48
2023-02-22T12:34:29.774Z,15.36
2023-02-22T12:37:11.886Z,15.49
2023-02-22T12:39:54.147Z,15.32
2023-02-22T12:42:31.287Z,15.52
2023-02-22T12:45:17.061Z,15.57
2023-02-22T12:47:56.085Z,15.66
2023-02-22T12:50:34.810Z,15.61
2023-02-22T12:53:15.793Z,15.75
2023-02-22T12:56:00.602Z,15.67
2023-02-22T12:58:35.178Z,15.52
2023-02-22T13:01:07.335Z,15.69
2023-02-22T13:03:39.394Z,15.63
2023-02-22T13:06:34.725Z,15.51
2023-02-22T13:09:13.018Z,15.54
2023-02-22T13:11:47.547Z,15.53
2023-02-22T13:14:35.908Z,15.56
2023-02-22T13:17:14.206Z,15.52
2023-02-22T13:19:48.796Z,15.49
2023-02-22T13:22:35.641Z,15.54
2023-02-22T13:25:16.680Z,15.58
2023-02-22T13:27:55.397Z,15.62
2023-02-22T13:30:29.079Z,15.59
2023-02-22T13:33:18.310Z,15.51
2023-02-22T13:36:08.901Z,15.47
2023-02-22T13:39:29.837Z,15.38
2023-02-22T13:42:44.382Z,15.36
2023-02-22T13:45:54.977Z,15.36
2023-02-22T13:49:00.473Z,15.32
2023-02-22T13:51:47.528Z,15.43
2023-02-22T13:54:31.312Z,15.42
2023-02-22T13:57:05.227Z,15.29
2023-02-22T13:59:47.280Z,15.22
2023-02-22T14:02:36.725Z,15.22
2023-02-22T14:05:37.230Z,15.20
2023-02-22T14:08:07.203Z,15.11
2023-02-22T14:10:52.102Z,15.07
2023-02-22T14:13:33.425Z,15.10
2023-02-22T14:16:37.775Z,15.18
2023-02-22T14:19:17.017Z,15.25
2023-02-22T14:22:06.872Z,15.32
2023-02-22T14:24:44.087Z,15.40
2023-02-22T14:27:20.642Z,15.37
2023-02-22T14:29:55.084Z,15.30
2023-02-22T14:32:44.725Z,15.19
2023-02-22T14:35:44.606Z,15.26
2023-02-22T14:38:17.865Z,15.28
2023-02-22T14:40:49.601Z,15.20
2023-02-22T14:43:33.380Z,15.12
2023-02-22T14:46:05.478Z,14.87
2023-02-22T14:48:42.940Z,14.93
2023-02-22T14:51:25.203Z,14.99
2023-02-22T14:54:01.409Z,14.88
2023-02-22T14:56:37.215Z,14.96
2023-02-22T14:59:28.231Z,14.77
2023-02-22T15:02:11.733Z,14.85
2023-02-22T15:04:44.117Z,14.81
2023-02-22T15:07:28.342Z,14.74
2023-02-22T15:10:26.499Z,14.69
2023-02-22T15:13:09.208Z,14.68
2023-02-22T15:15:44.126Z,14.66
2023-02-22T15:18:23.290Z,14.70
2023-02-22T15:20:58.473Z,14.60
2023-02-22T15:23:33.371Z,14.54
2023-02-22T15:26:05.857Z,14.56
2023-02-22T15:28:36.733Z,14.46
2023-02-22T15:31:33.429Z,14.49
2023-02-22T15:34:22.805Z,14.46
2023-02-22T15:36:55.159Z,14.45
2023-02-22T15:39:29.729Z,14.44
2023-02-22T15:42:09.582Z,14.42
2023-02-22T15:44:48.495Z,14.37
2023-02-22T15:47:25.994Z,14.41
2023-02-22T15:50:18.862Z,14.29
2023-02-22T15:53:01.596Z,14.11
2023-02-22T15:55:43.264Z,14.07
2023-02-22T15:58:25.447Z,14.12
2023-02-22T16:01:01.721Z,13.99
2023-02-22T16:03:58.592Z,13.85
2023-02-22T16:06:45.089Z,13.85
2023-02-22T16:09:26.018Z,13.77
2023-02-22T16:12:10.762Z,13.67
2023-02-22T16:14:50.432Z,13.71
2023-02-22T16:17:49.502Z,13.69
2023-02-22T16:20:41.986Z,13.66
2023-02-22T16:23:30.008Z,13.50
2023-02-22T16:26:29.950Z,13.35
2023-02-22T16:29:14.792Z,13.38
2023-02-22T16:31:45.918Z,13.44
2023-02-22T16:34:18.316Z,13.37
2023-02-22T16:36:58.374Z,13.31
2023-02-22T16:39:41.826Z,13.31
2023-02-22T16:42:12.919Z,13.20
2023-02-22T16:44:49.460Z,13.18
2023-02-22T16:47:31.322Z,13.27
2023-02-22T16:50:00.084Z,13.09
2023-02-22T16:52:43.430Z,13.06
2023-02-22T16:55:15.698Z,13.08
2023-02-22T16:57:56.247Z,13.08
2023-02-22T17:00:38.018Z,12.96
2023-02-22T17:03:09.390Z,12.97
2023-02-22T17:05:53.630Z,12.97
2023-02-22T17:08:35.241Z,12.81
2023-02-22T17:11:15.122Z,12.86
2023-02-22T17:13:55.391Z,12.82
2023-02-22T17:16:30.369Z,12.70
2023-02-22T17:19:07.499Z,12.73
2023-02-22T17:21:46.439Z,12.69
2023-02-22T17:24:35.102Z,12.69
2023-02-22T17:27:16.010Z,12.61
2023-02-22T17:29:49.597Z,12.55
2023-02-22T17:32:23.957Z,12.64
2023-02-22T17:35:05.561Z,12.65
2023-02-22T17:37:39.806Z,12.46
2023-02-22T17:40:20.784Z,12.53
2023-02-22T17:42:58.890Z,12.43
2023-02-22T17:45:46.398Z,12.35
2023-02-22T17:48:53.656Z,12.30
2023-02-22T17:51:28.850Z,12.28
2023-02-22T17:53:57.961Z,12.38
2023-02-22T17:56:53.262Z,12.18
2023-02-22T17:59:46.554Z,12.11
2023-02-22T18:02:30.262Z,12.23
2023-02-22T18:05:09.576Z,12.11
2023-02-22T18:07:41.508Z,12.14
2023-02-22T18:10:15.494Z,12.21
2023-02-22T18:13:04.445Z,12.23
2023-02-22T18:15:51.712Z,12.07
2023-02-22T18:18:30.738Z,12.17
2023-02-22T18:21:04.339Z,12.23
2023-02-22T18:23:42.882Z,12.25
2023-02-22T18:26:26.766Z,12.11
2023-02-22T18:29:10.726Z,12.12
2023-02-22T18:31:58.607Z,12.06
2023-02-22T18:34:34.572Z,12.14
2023-02-22T18:40:12.884Z,12.04
2023-02-22T18:42:50.244Z,12.10
2023-02-22T18:46:01.650Z,11.90
2023-02-22T18:49:07.503Z,11.70
2023-02-22T18:51:47.997Z,11.72
2023-02-22T18:54:38.138Z,11.78
2023-02-22T18:57:13.989Z,11.83
2023-02-22T18:59:51.422Z,11.64
2023-02-22T19:02:23.882Z,11.94
2023-02-22T19:05:15.392Z,11.69
2023-02-22T19:07:52.517Z,11.67
2023-02-22T19:10:28.392Z,11.75
2023-02-22T19:13:14.248Z,11.67
2023-02-22T19:15:54.897Z,11.52
2023-02-22T19:18:34.739Z,11.40
2023-02-22T19:21:14.516Z,11.31
2023-02-22T19:24:04.560Z,11.28
2023-02-22T19:26:36.159Z,11.25
2023-02-22T19:29:22.305Z,11.36
2023-02-22T19:31:59.822Z,11.38
2023-02-22T19:34:38.144Z,11.31
2023-02-22T19:37:28.898Z,11.34
2023-02-22T19:40:02.411Z,11.07
2023-02-22T19:42:32.689Z,11.01
2023-02-22T19:45:05.670Z,11.04
2023-02-22T19:47:43.929Z,11.05
2023-02-22T19:50:25.774Z,11.12
2023-02-22T19:53:01.460Z,11.02
2023-02-22T19:55:36.373Z,10.82
2023-02-22T19:58:21.591Z,10.96
2023-02-22T20:00:56.302Z,10.90
2023-02-22T20:03:55.134Z,10.75
2023-02-22T20:06:29.186Z,10.58
2023-02-22T20:09:09.470Z,10.56
2023-02-22T20:11:49.993Z,10.84
2023-02-22T20:14:32.951Z,11.00
2023-02-22T20:17:08.393Z,10.94
2023-02-22T20:19:42.973Z,10.73
2023-02-22T20:22:19.224Z,10.66
2023-02-22T20:28:07.876Z,10.66
2023-02-22T20:30:48.849Z,10.68
2023-02-22T20:36:39.471Z,10.69
2023-02-22T20:39:24.720Z,10.68
2023-02-22T20:42:21.637Z,10.70
2023-02-22T20:45:08.642Z,10.75
2023-02-22T20:47:49.203Z,10.71
2023-02-22T20:50:27.639Z,10.41
2023-02-22T20:53:02.199Z,10.55
2023-02-22T20:55:45.111Z,10.61
2023-02-22T20:58:28.608Z,10.68
2023-02-22T21:01:18.987Z,10.45
2023-02-22T21:03:57.338Z,10.43
2023-02-22T21:06:34.328Z,10.36
2023-02-22T21:09:18.232Z,10.53
2023-02-22T21:11:54.196Z,10.46
2023-02-22T21:14:41.338Z,10.43
2023-02-22T21:17:13.275Z,10.50
2023-02-22T21:19:54.093Z,10.43
2023-02-22T21:22:27.064Z,10.31
2023-02-22T21:25:09.946Z,10.34
2023-02-22T21:27:51.591Z,10.14
2023-02-22T21:30:31.946Z,10.35
2023-02-22T21:33:33.104Z,10.20
2023-02-22T21:36:28.479Z,10.18
2023-02-22T21:39:13.724Z,9.98
2023-02-22T21:41:49.688Z,10.27
2023-02-22T21:44:21.663Z,10.11
2023-02-22T21:47:12.269Z,10.16
2023-02-22T21:49:49.292Z,10.16
2023-02-22T21:52:33.987Z,10.21
2023-02-22T21:55:09.471Z,10.13
2023-02-22T21:57:44.150Z,10.10
2023-02-22T22:00:17.979Z,10.17
2023-02-22T22:02:55.285Z,9.97
2023-02-22T22:05:34.077Z,9.94
2023-02-22T22:08:09.919Z,10.03
2023-02-22T22:10:49.079Z,9.88
2023-02-22T22:13:21.455Z,9.84
2023-02-22T22:15:51.488Z,9.68
2023-02-22T22:18:36.890Z,9.75
2023-02-22T22:21:18.971Z,9.69
2023-02-22T22:23:50.995Z,9.72
2023-02-22T22:26:21.878Z,9.87
2023-02-22T22:28:58.297Z,9.71
2023-02-22T22:31:36.182Z,9.86
2023-02-22T22:34:15.633Z,9.80
2023-02-22T22:36:47.646Z,9.55
2023-02-22T22:39:25.311Z,9.70
2023-02-22T22:41:57.849Z,9.52
2023-02-22T22:44:32.972Z,9.73
2023-02-22T22:47:02.841Z,9.55
2023-02-22T22:49:43.510Z,9.72
2023-02-22T22:52:15.474Z,9.56
2023-02-22T22:54:50.710Z,9.56
2023-02-22T22:57:23.760Z,9.56
2023-02-22T22:59:55.106Z,9.55
2023-02-22T23:02:32.845Z,9.62
2023-02-22T23:05:02.916Z,9.53
2023-02-22T23:07:32.005Z,9.43
2023-02-22T23:10:00.450Z,9.43
2023-02-22T23:12:32.797Z,9.44
2023-02-22T23:15:02.876Z,9.45
2023-02-22T23:17:43.709Z,9.53
2023-02-22T23:20:25.339Z,9.42
2023-02-22T23:22:59.174Z,9.50
2023-02-22T23:25:29.935Z,9.25
2023-02-22T23:27:59.287Z,9.32
2023-02-22T23:30:28.262Z,9.35
2023-02-22T23:33:01.244Z,9.24
2023-02-22T23:35:39.092Z,9.32
2023-02-22T23:38:11.001Z,9.05
2023-02-22T23:40:40.666Z,9.34
2023-02-22T23:43:12.558Z,9.26
2023-02-22T23:45:48.750Z,9.15
2023-02-22T23:48:20.825Z,9.19
2023-02-22T23:51:00.595Z,9.16
2023-02-22T23:53:32.667Z,9.20
2023-02-22T23:56:06.612Z,9.29
2023-02-22T23:58:40.875Z,9.10
